Time;durP1;ratioP1;P1;durP2;ratioP2;P2;SDS_P1;SDS_P2;PMS_P1;PMS_P2;Temp;Humidity;BMP_temperature;BMP_pressure;BME280_temperature;BME280_humidity;BME280_pressure;Samples;Min_cycle;Max_cycle;Signal;HPM_P1;HPM_P2
2023/04/19 00:01:13;;;;;;;12.47;8.07;;;;;;;16.76;43.01;102841.78;5029793;28;20381;-69
2023/04/19 00:03:39;;;;;;;13.33;8.63;;;;;;;16.18;43.96;102834.00;5037152;28;20037;-69
2023/04/19 00:06:07;;;;;;;14.57;8.47;;;;;;;16.53;43.65;102835.72;5047127;28;20060;-70
2023/04/19 00:08:32;;;;;;;13.00;8.93;;;;;;;16.22;43.90;102833.13;5046111;28;20028;-70
2023/04/19 00:10:58;;;;;;;13.37;8.83;;;;;;;16.18;43.77;102832.25;5047898;28;20044;-70
2023/04/19 00:13:23;;;;;;;12.30;8.23;;;;;;;16.06;44.02;102827.88;5036646;28;20029;-69
2023/04/19 00:15:48;;;;;;;14.63;8.50;;;;;;;15.72;44.87;102830.50;5028434;28;20033;-70
2023/04/19 00:18:14;;;;;;;13.13;8.03;;;;;;;15.68;45.44;102826.09;5031348;28;20512;-69
2023/04/19 00:20:39;;;;;;;12.63;7.57;;;;;;;15.31;46.24;102822.56;5063295;28;20028;-70
2023/04/19 00:23:05;;;;;;;15.03;8.73;;;;;;;15.64;45.49;102826.97;5031254;28;21724;-69
2023/04/19 00:25:30;;;;;;;14.13;8.63;;;;;;;16.27;44.29;102820.81;5047596;28;20078;-69
2023/04/19 00:27:56;;;;;;;12.57;8.40;;;;;;;15.77;45.16;102823.47;5048860;28;20029;-70
2023/04/19 00:30:21;;;;;;;12.03;8.20;;;;;;;15.58;45.59;102814.69;5037092;28;20112;-70
2023/04/19 00:32:47;;;;;;;13.77;8.80;;;;;;;15.38;46.40;102817.28;5048163;28;20036;-69
2023/04/19 00:35:13;;;;;;;12.93;8.37;;;;;;;15.54;46.09;102817.34;5033149;28;20040;-69
2023/04/19 00:37:38;;;;;;;13.87;9.37;;;;;;;15.29;46.79;102822.56;5062880;28;20024;-70
2023/04/19 00:40:04;;;;;;;13.03;8.67;;;;;;;15.20;47.44;102818.13;5047351;28;20029;-70
2023/04/19 00:42:30;;;;;;;13.47;8.73;;;;;;;15.44;47.43;102813.78;5042257;28;20029;-70
2023/04/19 00:44:55;;;;;;;14.27;8.83;;;;;;;15.87;46.23;102827.03;5029754;28;20405;-69
2023/04/19 00:47:21;;;;;;;13.17;8.20;;;;;;;15.59;46.36;102818.19;5060767;28;20021;-69
2023/04/19 00:49:46;;;;;;;12.13;8.23;;;;;;;16.68;44.54;102818.91;5047804;28;20032;-70
2023/04/19 00:52:11;;;;;;;14.83;9.30;;;;;;;16.41;45.37;102812.84;5046708;28;20502;-69
2023/04/19 00:54:39;;;;;;;13.67;8.53;;;;;;;16.63;44.90;102813.66;5057438;28;20029;-70
2023/04/19 00:57:05;;;;;;;14.87;9.33;;;;;;;17.03;44.13;102802.91;5062704;28;20112;-70
2023/04/19 00:59:33;;;;;;;12.77;8.83;;;;;;;16.69;45.12;102813.66;5049396;28;20501;-69
2023/04/19 01:01:58;;;;;;;13.57;9.70;;;;;;;17.67;43.63;102800.72;5027974;28;20462;-70
2023/04/19 01:04:24;;;;;;;16.53;8.67;;;;;;;17.48;43.71;102800.00;5030559;28;20029;-69
2023/04/19 01:06:50;;;;;;;14.67;9.40;;;;;;;16.76;44.79;102799.53;5034229;28;20130;-69
2023/04/19 01:09:15;;;;;;;17.13;9.30;;;;;;;17.22;44.41;102808.09;5027591;28;20018;-69
2023/04/19 01:11:41;;;;;;;14.90;9.60;;;;;;;17.63;43.73;102799.84;5027528;28;20036;-69
2023/04/19 01:14:06;;;;;;;15.03;9.57;;;;;;;17.63;43.65;102804.28;5026765;28;20036;-69
2023/04/19 01:16:32;;;;;;;19.43;9.00;;;;;;;18.19;42.58;102799.38;5029334;28;20041;-70
2023/04/19 01:18:57;;;;;;;12.37;8.93;;;;;;;17.26;44.58;102794.00;5031849;28;20373;-69
2023/04/19 01:21:23;;;;;;;20.03;9.13;;;;;;;17.36;44.32;102789.50;5046683;28;20471;-69
2023/04/19 01:23:48;;;;;;;16.57;9.53;;;;;;;17.87;43.46;102789.06;5049635;28;20773;-69
2023/04/19 01:26:13;;;;;;;17.50;10.30;;;;;;;18.55;42.09;102789.25;5068533;28;20047;-69
2023/04/19 01:28:39;;;;;;;18.10;10.20;;;;;;;18.17;43.59;102784.41;5032439;28;20029;-70
2023/04/19 01:31:04;;;;;;;19.83;9.87;;;;;;;17.63;44.24;102788.41;5028789;28;20030;-69
2023/04/19 01:33:30;;;;;;;16.63;10.40;;;;;;;17.38;45.19;102785.97;5041995;28;20102;-69
2023/04/19 01:35:55;;;;;;;13.77;9.40;;;;;;;18.04;43.87;102787.19;5065074;28;20446;-69
2023/04/19 01:38:20;;;;;;;17.10;9.13;;;;;;;17.25;45.25;102792.22;5037113;28;20032;-70
2023/04/19 01:40:46;;;;;;;14.10;9.33;;;;;;;17.66;44.05;102798.09;5034594;28;20033;-69
2023/04/19 01:43:13;;;;;;;15.97;9.37;;;;;;;17.49;44.78;102795.56;5036660;28;20108;-70
2023/04/19 01:45:38;;;;;;;14.20;9.17;;;;;;;16.92;45.85;102794.19;5047260;28;20066;-69
2023/04/19 01:48:04;;;;;;;13.67;8.83;;;;;;;16.89;45.22;102794.22;5031261;28;20118;-70
2023/04/19 01:50:30;;;;;;;15.77;9.60;;;;;;;16.75;45.69;102795.13;5047024;28;20029;-69
2023/04/19 01:52:56;;;;;;;18.17;9.97;;;;;;;16.69;46.22;102795.16;5047220;28;20069;-70
2023/04/19 01:55:22;;;;;;;15.40;9.77;;;;;;;17.43;44.18;102785.91;5062070;28;20153;-70
2023/04/19 01:57:47;;;;;;;14.27;9.50;;;;;;;16.86;44.77;102794.22;5070911;28;20154;-70
2023/04/19 02:00:14;;;;;;;15.70;10.07;;;;;;;16.73;46.01;102794.25;5050382;28;20033;-70
2023/04/19 02:02:40;;;;;;;15.63;9.30;;;;;;;16.54;45.78;102797.84;5054705;28;20472;-70
2023/04/19 02:05:06;;;;;;;16.73;9.37;;;;;;;15.55;48.27;102796.25;5071701;28;20021;-70
2023/04/19 02:07:32;;;;;;;16.63;9.47;;;;;;;15.51;48.07;102796.22;5067323;28;20024;-70
2023/04/19 02:10:00;;;;;;;15.07;9.53;;;;;;;15.67;47.53;102792.72;5043263;28;20036;-69
2023/04/19 02:12:27;;;;;;;16.33;9.60;;;;;;;16.14;46.41;102793.56;5042682;28;20025;-69
2023/04/19 02:14:56;;;;;;;13.37;9.13;;;;;;;15.75;47.04;102793.59;5050548;28;20218;-69
2023/04/19 02:17:24;;;;;;;14.60;10.07;;;;;;;16.37;45.91;102785.59;5050476;28;20033;-69
2023/04/19 02:19:50;;;;;;;15.77;9.03;;;;;;;16.67;45.22;102782.84;5058129;28;20108;-68
2023/04/19 02:22:16;;;;;;;16.60;9.87;;;;;;;16.67;45.18;102786.34;5046525;28;20311;-68
2023/04/19 02:24:41;;;;;;;15.93;9.63;;;;;;;16.70;45.29;102786.34;5037026;28;20030;-68
2023/04/19 02:27:07;;;;;;;18.63;9.70;;;;;;;16.13;46.20;102789.19;5029799;28;20032;-68
2023/04/19 02:29:32;;;;;;;15.07;8.83;;;;;;;16.17;46.25;102783.03;5039996;28;20044;-68
2023/04/19 02:31:58;;;;;;;13.93;9.57;;;;;;;16.22;46.34;102786.50;5056155;28;20476;-71
2023/04/19 02:34:24;;;;;;;14.23;9.50;;;;;;;15.55;47.77;102790.06;5030794;28;20498;-70
2023/04/19 02:36:49;;;;;;;18.83;9.63;;;;;;;16.69;45.73;102792.53;5045098;28;20079;-68
2023/04/19 02:39:16;;;;;;;16.73;10.30;;;;;;;16.30;46.94;102788.25;5051104;28;20070;-68
2023/04/19 02:41:41;;;;;;;19.33;9.70;;;;;;;15.61;48.51;102798.00;5060273;28;20025;-68
2023/04/19 02:44:07;;;;;;;20.40;9.90;;;;;;;15.68;47.87;102789.19;5048026;28;20029;-68
2023/04/19 02:46:32;;;;;;;15.37;9.87;;;;;;;16.08;46.98;102793.59;5038984;28;20452;-68
2023/04/19 02:49:00;;;;;;;17.93;10.10;;;;;;;16.30;47.20;102796.19;5046757;28;20032;-70
2023/04/19 02:51:25;;;;;;;18.10;10.63;;;;;;;16.24;47.17;102794.44;5058074;28;20053;-69
2023/04/19 02:53:51;;;;;;;15.43;10.20;;;;;;;16.45;46.34;102802.28;5050547;28;20047;-68
2023/04/19 02:56:17;;;;;;;17.40;9.60;;;;;;;16.22;47.60;102796.19;5049268;28;20029;-68
2023/04/19 02:58:42;;;;;;;15.93;9.73;;;;;;;15.99;47.70;102802.41;5049002;28;20051;-70
2023/04/19 03:01:08;;;;;;;14.37;9.40;;;;;;;15.54;49.02;102793.59;5044327;28;20028;-71
2023/04/19 03:03:33;;;;;;;17.63;9.83;;;;;;;16.78;46.88;102797.75;5029713;28;20033;-69
2023/04/19 03:05:59;;;;;;;17.20;10.27;;;;;;;16.52;47.55;102794.34;5028908;28;20037;-69
2023/04/19 03:08:24;;;;;;;16.57;10.73;;;;;;;16.17;47.75;102800.59;5029010;28;20032;-69
2023/04/19 03:10:49;;;;;;;14.87;9.70;;;;;;;16.09;47.79;102801.50;5041443;28;20025;-68
2023/04/19 03:13:15;;;;;;;15.20;9.63;;;;;;;15.94;48.50;102802.41;5030096;28;20119;-68
2023/04/19 03:15:40;;;;;;;15.50;9.87;;;;;;;16.23;47.87;102798.81;5031063;28;20112;-69
2023/04/19 03:18:05;;;;;;;15.67;10.40;;;;;;;15.67;48.92;102791.84;5030678;28;20053;-69
2023/04/19 03:20:31;;;;;;;19.47;9.67;;;;;;;15.94;48.60;102796.25;5044543;28;20099;-69
2023/04/19 03:22:56;;;;;;;14.67;10.13;;;;;;;16.35;47.44;102797.91;5030651;28;20132;-69
2023/04/19 03:25:22;;;;;;;14.20;9.30;;;;;;;16.31;47.62;102790.91;5029046;28;20074;-69
2023/04/19 03:27:48;;;;;;;15.60;9.90;;;;;;;16.13;48.30;102788.28;5028498;28;20527;-70
2023/04/19 03:30:14;;;;;;;14.20;9.17;;;;;;;16.62;46.84;102793.41;5043648;28;20491;-68
2023/04/19 03:32:39;;;;;;;17.33;10.10;;;;;;;16.38;47.52;102787.34;5049169;28;20025;-69
2023/04/19 03:35:05;;;;;;;18.07;9.73;;;;;;;16.74;46.25;102788.06;5029290;28;20045;-68
2023/04/19 03:37:30;;;;;;;19.53;10.10;;;;;;;16.21;48.41;102797.06;5049311;28;20104;-69
2023/04/19 03:39:56;;;;;;;17.47;10.13;;;;;;;16.89;46.70;102781.00;5054681;28;20107;-69
2023/04/19 03:42:21;;;;;;;15.87;10.23;;;;;;;16.19;48.00;102781.25;5042890;28;20082;-68
2023/04/19 03:44:47;;;;;;;15.50;10.13;;;;;;;16.13;47.69;102777.75;5049150;28;20135;-69
2023/04/19 03:47:12;;;;;;;12.97;8.90;;;;;;;16.43;47.29;102782.94;5045266;28;20033;-68
2023/04/19 03:49:37;;;;;;;16.07;10.23;;;;;;;15.75;49.17;102782.16;5030717;28;20032;-69
2023/04/19 03:52:04;;;;;;;14.30;9.10;;;;;;;16.38;47.78;102770.66;5034540;28;20401;-69
2023/04/19 03:54:29;;;;;;;15.23;9.27;;;;;;;16.85;46.72;102776.59;5036593;28;20029;-69
2023/04/19 03:56:55;;;;;;;15.80;9.00;;;;;;;16.37;47.50;102784.72;5028774;28;20025;-69
2023/04/19 03:59:21;;;;;;;15.20;9.50;;;;;;;16.43;47.12;102779.41;5028064;28;20029;-69
2023/04/19 04:01:46;;;;;;;11.50;8.57;;;;;;;16.26;47.38;102784.75;5044980;28;20029;-68
2023/04/19 04:04:12;;;;;;;16.20;9.50;;;;;;;16.81;46.23;102774.84;5029548;28;20029;-70
2023/04/19 04:06:37;;;;;;;17.90;10.17;;;;;;;16.58;47.21;102775.84;5028625;28;20064;-69
2023/04/19 04:09:02;;;;;;;14.47;9.23;;;;;;;15.91;47.99;102791.00;5027814;28;20033;-69
2023/04/19 04:11:28;;;;;;;14.33;8.70;;;;;;;16.24;47.99;102783.88;5044939;28;20021;-69
2023/04/19 04:13:55;;;;;;;15.20;8.90;;;;;;;16.90;46.32;102780.13;5046611;28;20033;-69
2023/04/19 04:16:20;;;;;;;12.83;8.80;;;;;;;16.61;46.77;102779.34;5047219;28;20032;-69
2023/04/19 04:18:46;;;;;;;16.10;9.90;;;;;;;16.37;47.45;102782.94;5049732;28;20481;-70
2023/04/19 04:21:11;;;;;;;15.03;9.20;;;;;;;16.60;46.52;102779.34;5049406;28;20500;-69
2023/04/19 04:23:37;;;;;;;16.47;9.00;;;;;;;16.02;47.88;102791.84;5028895;28;20057;-69
2023/04/19 04:26:04;;;;;;;13.90;8.90;;;;;;;16.79;47.19;102783.66;5029668;28;20037;-70
2023/04/19 04:28:29;;;;;;;15.03;8.47;;;;;;;15.67;48.26;102786.56;5029555;28;20366;-69
2023/04/19 04:30:56;;;;;;;14.87;8.53;;;;;;;15.84;48.73;102794.50;5054164;28;20036;-70
2023/04/19 04:33:25;;;;;;;12.17;7.93;;;;;;;15.87;48.31;102800.66;5049192;28;20371;-72
2023/04/19 04:35:52;;;;;;;14.23;8.03;;;;;;;16.02;48.11;102789.22;5048090;28;20039;-73
2023/04/19 04:38:18;;;;;;;14.53;8.57;;;;;;;16.30;47.36;102789.13;5047188;28;20440;-73
2023/04/19 04:40:48;;;;;;;15.03;9.00;;;;;;;16.37;47.49;102787.34;5055909;28;20036;-73
2023/04/19 04:43:13;;;;;;;15.17;8.77;;;;;;;16.33;47.21;102788.25;5040962;28;20037;-73
2023/04/19 04:45:39;;;;;;;12.90;8.03;;;;;;;16.68;46.46;102782.84;5044935;28;20124;-73
2023/04/19 04:48:04;;;;;;;19.37;8.80;;;;;;;16.13;47.93;102794.47;5049185;28;20024;-73
2023/04/19 04:50:30;;;;;;;14.13;8.33;;;;;;;15.98;48.30;102787.47;5048198;28;20443;-74
2023/04/19 04:52:55;;;;;;;14.13;8.17;;;;;;;15.83;47.87;102795.41;5040195;28;20040;-73
2023/04/19 04:55:21;;;;;;;14.97;9.03;;;;;;;16.62;46.77;102790.78;5047948;28;20031;-73
2023/04/19 04:57:46;;;;;;;11.63;8.03;;;;;;;16.06;47.48;102801.50;5056680;28;20045;-73
2023/04/19 05:00:12;;;;;;;14.67;8.63;;;;;;;15.64;49.19;102792.72;5047656;28;20156;-73
2023/04/19 05:02:37;;;;;;;12.87;8.30;;;;;;;16.31;46.91;102795.28;5039790;28;20057;-73
2023/04/19 05:05:06;;;;;;;12.63;8.07;;;;;;;15.89;48.42;102796.25;5032085;28;20393;-71
2023/04/19 05:07:31;;;;;;;12.20;8.23;;;;;;;16.06;47.92;102796.22;5071796;28;20499;-73
2023/04/19 05:09:57;;;;;;;13.63;7.87;;;;;;;16.26;46.79;102793.53;5056048;28;20041;-73
2023/04/19 05:12:22;;;;;;;12.50;8.47;;;;;;;16.43;47.12;102803.16;5049856;28;20033;-73
2023/04/19 05:14:47;;;;;;;12.57;7.80;;;;;;;15.76;48.04;102808.53;5051081;28;20044;-73
2023/04/19 05:17:13;;;;;;;11.50;8.00;;;;;;;15.86;47.80;102798.88;5064521;28;20032;-74
2023/04/19 05:19:38;;;;;;;14.43;8.17;;;;;;;16.12;46.75;102795.34;5052263;28;20106;-73
2023/04/19 05:22:06;;;;;;;11.73;7.20;;;;;;;16.37;46.90;102796.13;5051799;28;20028;-73
2023/04/19 05:24:32;;;;;;;11.57;7.30;;;;;;;16.36;46.25;102797.03;5034115;28;20060;-73
2023/04/19 05:26:57;;;;;;;11.97;7.33;;;;;;;15.31;48.21;102794.44;5040850;28;20489;-74
2023/04/19 05:29:22;;;;;;;14.27;8.23;;;;;;;15.97;47.75;102804.16;5030966;28;20622;-73
2023/04/19 05:31:48;;;;;;;10.97;7.73;;;;;;;16.02;46.87;102805.03;5037246;28;20497;-73
2023/04/19 05:34:13;;;;;;;12.80;7.87;;;;;;;15.99;46.73;102804.16;5031932;28;20033;-73
2023/04/19 05:36:38;;;;;;;13.07;7.77;;;;;;;15.90;46.77;102805.03;5059477;28;20373;-73
2023/04/19 05:39:04;;;;;;;12.03;7.70;;;;;;;15.87;47.37;102810.34;5046957;28;20842;-72
2023/04/19 05:41:30;;;;;;;13.90;8.20;;;;;;;15.86;47.19;102813.84;5031863;28;20120;-73
2023/04/19 05:43:55;;;;;;;13.33;7.43;;;;;;;16.22;46.55;102817.28;5032545;28;20389;-73
2023/04/19 05:46:20;;;;;;;13.83;7.20;;;;;;;16.10;46.41;102816.44;5059548;28;20056;-73
2023/04/19 05:48:46;;;;;;;10.63;7.10;;;;;;;16.48;45.36;102809.31;5071916;28;20062;-73
2023/04/19 05:51:13;;;;;;;12.73;7.00;;;;;;;15.51;46.88;102806.75;5066952;28;20045;-73
2023/04/19 05:53:38;;;;;;;14.70;7.87;;;;;;;15.76;46.57;102819.06;5040987;28;20040;-73
2023/04/19 05:56:04;;;;;;;13.93;7.60;;;;;;;16.50;44.78;102826.03;5047022;28;20032;-73
2023/04/19 05:58:30;;;;;;;13.33;7.53;;;;;;;16.57;45.25;102818.97;5054265;28;20464;-73
2023/04/19 06:00:55;;;;;;;9.90;7.00;;;;;;;15.60;47.25;102822.59;5046785;28;20408;-73
2023/04/19 06:03:20;;;;;;;11.70;7.27;;;;;;;16.11;45.44;102820.84;5030597;28;20022;-73
2023/04/19 06:05:46;;;;;;;12.13;7.73;;;;;;;15.78;46.65;102817.34;5037492;28;20393;-70
2023/04/19 06:08:11;;;;;;;11.27;7.37;;;;;;;15.90;45.76;102820.88;5039141;28;20037;-69
2023/04/19 06:10:36;;;;;;;10.47;6.67;;;;;;;16.01;45.52;102821.72;5030918;28;20481;-69
2023/04/19 06:13:02;;;;;;;12.37;7.47;;;;;;;16.10;45.23;102819.09;5048961;28;20048;-69
2023/04/19 06:15:29;;;;;;;13.67;7.80;;;;;;;16.04;45.18;102819.06;5036571;28;20056;-70
2023/04/19 06:17:55;;;;;;;14.27;7.10;;;;;;;16.31;44.49;102827.84;5047909;28;20163;-70
2023/04/19 06:20:20;;;;;;;13.87;7.40;;;;;;;16.66;43.47;102824.19;5048632;28;20125;-70
2023/04/19 06:22:47;;;;;;;9.23;6.87;;;;;;;16.15;44.42;102820.84;5038306;28;20039;-69
2023/04/19 06:25:12;;;;;;;15.27;8.00;;;;;;;16.40;44.00;102821.66;5053972;28;20062;-69
2023/04/19 06:27:38;;;;;;;15.97;8.47;;;;;;;17.46;41.90;102818.50;5070490;28;20020;-69
2023/04/19 06:30:04;;;;;;;13.37;7.10;;;;;;;16.48;43.75;102829.56;5069624;28;20032;-68
2023/04/19 06:32:30;;;;;;;17.03;7.27;;;;;;;16.81;43.27;102822.38;5043093;28;20029;-70
2023/04/19 06:34:55;;;;;;;13.97;7.53;;;;;;;16.89;43.13;102826.78;5030073;28;20504;-69
2023/04/19 06:37:20;;;;;;;11.33;6.77;;;;;;;16.47;43.53;102827.78;5046059;28;20674;-69
2023/04/19 06:39:46;;;;;;;11.70;6.67;;;;;;;16.82;43.40;102816.22;5052392;28;20028;-69
2023/04/19 06:42:11;;;;;;;13.40;7.77;;;;;;;16.70;42.79;102825.94;5050179;28;20473;-70
2023/04/19 06:44:37;;;;;;;9.43;7.17;;;;;;;17.97;40.48;102825.19;5050746;28;20041;-69
2023/04/19 06:47:02;;;;;;;15.60;7.60;;;;;;;17.09;41.44;102818.75;5049050;28;20469;-70
2023/04/19 06:49:28;;;;;;;13.20;7.47;;;;;;;16.73;42.09;102825.06;5049539;28;20033;-69
2023/04/19 06:51:53;;;;;;;13.30;6.90;;;;;;;16.69;41.21;102829.50;5049329;28;20094;-70
2023/04/19 06:54:19;;;;;;;11.30;7.03;;;;;;;16.75;41.56;102829.44;5035071;28;20041;-72
2023/04/19 06:56:46;;;;;;;12.40;6.87;;;;;;;16.41;42.14;102819.00;5062815;28;20036;-72
2023/04/19 06:59:19;;;;;;;11.67;6.90;;;;;;;16.79;41.30;102820.63;5044328;28;20040;-73
2023/04/19 07:01:46;;;;;;;12.57;7.30;;;;;;;15.71;42.81;102826.09;5050205;28;20384;-72
2023/04/19 07:04:12;;;;;;;11.13;7.10;;;;;;;17.18;40.39;102824.88;5049635;28;20028;-72
2023/04/19 07:06:38;;;;;;;8.50;6.27;;;;;;;16.97;40.27;102818.81;5067555;28;20127;-72
2023/04/19 07:09:05;;;;;;;11.17;7.10;;;;;;;17.16;40.35;102821.34;5041274;28;20116;-73
2023/04/19 07:11:31;;;;;;;11.80;6.90;;;;;;;17.34;39.78;102823.88;5032367;28;20071;-72
2023/04/19 07:14:00;;;;;;;14.03;6.80;;;;;;;17.61;38.95;102808.69;5049254;28;20556;-71
2023/04/19 07:16:26;;;;;;;9.77;6.53;;;;;;;17.06;38.98;102824.06;5068690;28;20079;-73
2023/04/19 07:18:51;;;;;;;11.00;7.20;;;;;;;17.94;38.39;102814.59;5070186;28;20097;-73
2023/04/19 07:21:17;;;;;;;10.10;6.67;;;;;;;17.63;38.18;102812.22;5068862;28;20488;-72
2023/04/19 07:23:42;;;;;;;9.53;6.53;;;;;;;17.63;37.75;102818.38;5048740;28;20497;-72
2023/04/19 07:26:07;;;;;;;10.83;6.07;;;;;;;18.85;35.61;102818.88;5046590;28;20079;-71
2023/04/19 07:28:33;;;;;;;11.20;6.30;;;;;;;19.18;34.77;102818.44;5047739;28;20577;-70
2023/04/19 07:30:59;;;;;;;12.60;5.22;;;;;;;20.05;32.16;102808.19;5032162;28;20021;-70
2023/04/19 07:33:25;;;;;;;9.82;6.10;;;;;;;20.23;32.05;102806.09;5027888;28;20068;-70
2023/04/19 07:35:51;;;;;;;12.05;5.95;;;;;;;22.11;30.19;102801.75;5055162;28;20139;-69
2023/04/19 07:38:16;;;;;;;8.00;5.63;;;;;;;22.97;28.78;102797.50;5030122;28;20029;-69
2023/04/19 07:40:42;;;;;;;7.97;6.18;;;;;;;22.94;28.43;102798.44;5027939;28;20116;-71
2023/04/19 07:43:07;;;;;;;7.63;5.43;;;;;;;25.02;26.15;102787.59;5039528;28;20032;-70
2023/04/19 07:45:32;;;;;;;9.15;5.82;;;;;;;24.94;26.07;102795.06;5047452;28;20422;-71
2023/04/19 07:47:58;;;;;;;9.95;5.60;;;;;;;23.64;26.14;102798.91;5042653;28;20060;-70
2023/04/19 07:50:25;;;;;;;11.02;5.47;;;;;;;24.15;25.76;102800.69;5041963;28;20512;-72
2023/04/19 07:52:50;;;;;;;8.35;5.35;;;;;;;24.32;26.13;102796.53;5049930;28;20512;-71
2023/04/19 07:55:16;;;;;;;8.10;5.03;;;;;;;24.02;25.88;102800.25;5038120;28;20025;-71
2023/04/19 07:57:45;;;;;;;7.57;4.65;;;;;;;23.96;25.90;102799.59;5038837;28;20477;-70
2023/04/19 08:00:11;;;;;;;8.95;5.90;;;;;;;24.18;25.72;102808.59;5049444;28;20021;-71
2023/04/19 08:02:37;;;;;;;5.65;4.65;;;;;;;23.87;25.59;102806.13;5047261;28;20702;-70
2023/04/19 08:05:03;;;;;;;7.20;5.03;;;;;;;24.35;25.87;102799.09;5042756;28;20129;-71
2023/04/19 08:07:28;;;;;;;11.02;5.03;;;;;;;24.79;24.81;102801.03;5040775;28;20068;-72
2023/04/19 08:09:53;;;;;;;17.75;5.03;;;;;;;23.06;25.88;102802.53;5049193;28;20029;-71
2023/04/19 08:12:19;;;;;;;8.68;5.05;;;;;;;23.29;25.89;102788.50;5045855;28;20061;-71
2023/04/19 08:14:45;;;;;;;8.88;4.43;;;;;;;24.83;24.27;102786.59;5046899;28;20115;-71
2023/04/19 08:17:10;;;;;;;7.32;4.38;;;;;;;23.77;25.25;102799.34;5048883;28;20033;-72
2023/04/19 08:19:36;;;;;;;7.13;4.75;;;;;;;26.08;23.34;102784.06;5055105;28;20036;-72
2023/04/19 08:22:03;;;;;;;5.65;4.25;;;;;;;24.61;24.01;102794.56;5068494;28;20041;-72
2023/04/19 08:24:30;;;;;;;5.35;3.75;;;;;;;24.60;24.43;102784.78;5053842;28;20132;-71
2023/04/19 08:26:55;;;;;;;8.73;4.30;;;;;;;25.28;23.73;102780.31;5048402;28;20087;-71
2023/04/19 08:29:21;;;;;;;7.53;4.32;;;;;;;26.83;22.25;102782.41;5050464;28;20060;-72
2023/04/19 08:31:47;;;;;;;5.75;3.83;;;;;;;25.55;21.46;102786.34;5051554;28;20024;-71
2023/04/19 08:34:13;;;;;;;10.07;4.05;;;;;;;25.14;22.46;102786.22;5059760;28;20021;-71
2023/04/19 08:36:38;;;;;;;5.72;2.90;;;;;;;25.94;22.24;102786.44;5036179;28;20139;-71
2023/04/19 08:39:04;;;;;;;5.70;3.53;;;;;;;25.72;22.37;102788.25;5024863;28;20488;-71
2023/04/19 08:41:30;;;;;;;4.70;3.70;;;;;;;26.71;21.03;102788.34;5044331;28;20443;-71
2023/04/19 08:43:57;;;;;;;5.00;3.25;;;;;;;26.51;21.13;102786.56;5052290;28;20037;-72
2023/04/19 08:46:23;;;;;;;4.85;3.13;;;;;;;26.76;21.55;102791.66;5030874;28;20021;-71
2023/04/19 08:48:50;;;;;;;5.35;3.45;;;;;;;25.70;21.12;102791.94;5049543;28;20554;-70
2023/04/19 08:51:16;;;;;;;7.20;3.40;;;;;;;25.75;21.74;102792.63;5058603;28;20045;-69
2023/04/19 08:53:43;;;;;;;6.80;2.90;;;;;;;27.04;20.01;102787.66;5050788;28;20452;-70
2023/04/19 08:56:09;;;;;;;3.50;2.53;;;;;;;26.47;20.96;102790.34;5041595;28;20025;-70
2023/04/19 08:58:35;;;;;;;4.18;2.75;;;;;;;24.69;21.72;102800.50;5048748;28;20444;-70
2023/04/19 09:01:04;;;;;;;5.97;2.95;;;;;;;24.03;22.77;102795.81;5050440;28;20028;-70
2023/04/19 09:03:29;;;;;;;5.10;2.80;;;;;;;24.96;21.99;102781.63;5052268;28;20025;-70
2023/04/19 09:05:55;;;;;;;3.72;2.70;;;;;;;24.28;22.38;102794.91;5040778;28;20032;-70
2023/04/19 09:08:29;;;;;;;3.63;2.50;;;;;;;25.19;21.60;102794.91;5049902;28;20489;-70
2023/04/19 09:10:59;;;;;;;7.28;3.28;;;;;;;26.39;20.82;102791.56;5049810;28;20026;-70
2023/04/19 09:13:26;;;;;;;6.05;3.00;;;;;;;26.44;20.57;102780.63;5048669;28;20059;-69
2023/04/19 09:15:53;;;;;;;4.55;2.70;;;;;;;25.99;20.97;102782.63;5047853;28;20474;-70
2023/04/19 09:18:19;;;;;;;5.50;2.90;;;;;;;27.35;19.85;102772.69;5048785;28;20037;-69
2023/04/19 09:20:45;;;;;;;8.00;2.70;;;;;;;26.99;19.92;102773.59;5050056;28;20028;-73
2023/04/19 09:23:15;;;;;;;3.53;2.67;;;;;;;27.85;18.16;102779.97;5052979;28;20028;-73
2023/04/19 09:26:12;;;;;;;8.55;2.55;;;;;;;27.94;18.81;102775.91;5053786;28;20024;-72
2023/04/19 09:28:37;;;;;;;5.18;2.78;;;;;;;26.52;20.38;102785.63;5059098;28;20036;-72
2023/04/19 09:31:12;;;;;;;5.63;3.00;;;;;;;27.27;18.68;102770.38;5053034;28;20035;-71
2023/04/19 09:33:38;;;;;;;5.95;3.03;;;;;;;26.70;19.21;102771.38;5054632;28;20028;-71
2023/04/19 09:36:04;;;;;;;4.25;2.53;;;;;;;27.59;18.97;102776.81;5050680;28;20041;-71
2023/04/19 09:38:47;;;;;;;3.67;2.20;;;;;;;28.05;17.51;102772.69;5055625;28;20032;-71
2023/04/19 09:41:13;;;;;;;4.07;1.92;;;;;;;26.33;17.41;102767.72;5055114;28;20039;-72
2023/04/19 09:43:38;;;;;;;3.70;2.10;;;;;;;27.55;17.41;102767.19;5047811;28;20021;-72
2023/04/19 09:46:04;;;;;;;4.20;2.33;;;;;;;27.07;17.67;102757.97;5047921;28;20493;-71
2023/04/19 09:48:29;;;;;;;2.90;2.20;;;;;;;25.37;18.84;102765.69;5049782;28;20037;-71
2023/04/19 09:51:00;;;;;;;3.45;2.15;;;;;;;24.93;19.34;102771.06;5050112;28;20017;-71
2023/04/19 09:53:27;;;;;;;5.68;2.30;;;;;;;26.09;17.98;102764.38;5066324;28;20025;-71
2023/04/19 09:55:52;;;;;;;2.33;2.13;;;;;;;25.68;18.01;102769.75;5065233;28;20044;-71
2023/04/19 09:58:19;;;;;;;7.70;2.25;;;;;;;26.04;17.74;102772.59;5038536;28;20064;-71
2023/04/19 10:00:46;;;;;;;2.63;1.95;;;;;;;24.94;18.71;102762.09;5046868;28;20025;-71
2023/04/19 10:03:14;;;;;;;5.53;3.13;;;;;;;24.83;18.79;102766.06;5040065;28;20090;-71
2023/04/19 10:05:41;;;;;;;5.85;3.53;;;;;;;25.76;18.73;102756.88;5039771;28;20032;-71
2023/04/19 10:08:08;;;;;;;6.47;3.20;;;;;;;25.68;17.82;102753.66;5043334;28;20037;-71
2023/04/19 10:10:33;;;;;;;7.30;3.90;;;;;;;23.50;19.79;102765.53;5049386;28;20393;-69
2023/04/19 10:13:02;;;;;;;8.52;2.75;;;;;;;24.79;18.37;102755.56;5051997;28;20029;-70
2023/04/19 10:15:29;;;;;;;6.60;3.40;;;;;;;24.33;19.01;102763.53;5055192;28;20053;-70
2023/04/19 10:17:55;;;;;;;4.10;2.10;;;;;;;24.45;19.14;102765.72;5040700;28;20392;-70
2023/04/19 10:20:45;;;;;;;2.50;1.85;;;;;;;25.20;17.75;102759.22;5044434;28;21158;-70
2023/04/19 10:23:11;;;;;;;9.57;2.20;;;;;;;24.74;18.58;102755.72;5041457;28;20075;-71
2023/04/19 10:25:37;;;;;;;3.45;2.28;;;;;;;25.67;18.05;102758.13;5048625;28;20036;-70
2023/04/19 10:28:03;;;;;;;2.20;1.60;;;;;;;23.92;18.23;102771.25;5046199;28;20393;-71
2023/04/19 10:30:29;;;;;;;2.47;1.80;;;;;;;23.12;18.63;102754.38;5046113;28;20057;-70
2023/04/19 10:33:01;;;;;;;5.07;1.90;;;;;;;23.69;18.83;102760.44;5061363;28;20033;-71
2023/04/19 10:35:28;;;;;;;2.03;1.57;;;;;;;24.88;18.41;102745.38;5045018;28;20021;-70
2023/04/19 10:38:15;;;;;;;2.75;1.73;;;;;;;24.45;18.12;102755.03;5050330;28;20307;-70
2023/04/19 10:41:00;;;;;;;2.75;2.17;;;;;;;25.45;18.02;102742.16;5049508;28;20119;-70
2023/04/19 10:43:28;;;;;;;5.05;1.75;;;;;;;24.88;17.81;102740.00;5041791;28;20112;-70
2023/04/19 10:45:54;;;;;;;3.28;1.45;;;;;;;24.39;17.77;102744.59;5038974;28;20037;-71
2023/04/19 10:48:32;;;;;;;3.47;1.98;;;;;;;24.04;17.70;102745.00;5037744;28;20031;-70
2023/04/19 10:51:17;;;;;;;3.28;1.25;;;;;;;24.25;18.46;102738.88;5049645;28;20506;-70
2023/04/19 10:53:47;;;;;;;2.47;1.38;;;;;;;25.17;17.63;102737.94;5033652;28;20075;-69
2023/04/19 10:56:14;;;;;;;3.45;1.58;;;;;;;25.16;17.66;102735.34;5044402;28;20025;-71
2023/04/19 11:01:47;;;;;;;8.90;1.50;;;;;;;24.60;18.41;102731.31;5032319;28;20053;-70
2023/04/19 11:04:31;;;;;;;1.33;1.10;;;;;;;23.78;18.99;102737.00;5047926;28;20084;-70
2023/04/19 11:07:02;;;;;;;4.00;1.50;;;;;;;22.87;19.16;102733.81;5048207;28;20061;-70
2023/04/19 11:09:40;;;;;;;8.30;1.75;;;;;;;23.47;18.96;102738.13;5049648;28;20539;-70
2023/04/19 11:12:09;;;;;;;4.20;1.55;;;;;;;23.80;18.92;102736.03;5048912;28;20061;-70
2023/04/19 11:14:39;;;;;;;2.38;1.88;;;;;;;23.95;18.28;102734.66;5038688;28;20076;-71
2023/04/19 11:17:26;;;;;;;5.10;2.10;;;;;;;23.67;18.67;102729.38;5039668;28;20063;-71
2023/04/19 11:19:59;;;;;;;4.30;1.98;;;;;;;24.24;19.01;102739.84;5049314;28;20029;-70